sensor_id;sensor_type;location;lat;lon;timestamp;pressure;altitude;pressure_sealevel;temperature;humidity
8637;BME280;4356;49.068;8.658;2023-02-28T00:00:49;100729.41;;;15.90;29.91
8637;BME280;4356;49.068;8.658;2023-02-28T00:03:14;100725.38;;;15.86;29.71
8637;BME280;4356;49.068;8.658;2023-02-28T00:05:40;100721.34;;;15.82;29.76
8637;BME280;4356;49.068;8.658;2023-02-28T00:08:07;100733.50;;;15.86;29.75
8637;BME280;4356;49.068;8.658;2023-02-28T00:10:33;100726.38;;;15.85;29.93
8637;BME280;4356;49.068;8.658;2023-02-28T00:13:02;100730.97;;;15.85;29.86
8637;BME280;4356;49.068;8.658;2023-02-28T00:15:28;100737.59;;;15.82;29.52
8637;BME280;4356;49.068;8.658;2023-02-28T00:17:54;100730.84;;;15.78;29.91
8637;BME280;4356;49.068;8.658;2023-02-28T00:20:20;100711.69;;;15.65;30.04
8637;BME280;4356;49.068;8.658;2023-02-28T00:22:48;100709.00;;;15.65;30.11
8637;BME280;4356;49.068;8.658;2023-02-28T00:25:19;100726.84;;;15.74;29.91
8637;BME280;4356;49.068;8.658;2023-02-28T00:27:45;100724.50;;;15.71;29.76
8637;BME280;4356;49.068;8.658;2023-02-28T00:30:13;100729.91;;;15.71;30.04
8637;BME280;4356;49.068;8.658;2023-02-28T00:32:39;100714.75;;;15.62;29.92
8637;BME280;4356;49.068;8.658;2023-02-28T00:35:06;100730.66;;;15.65;29.93
8637;BME280;4356;49.068;8.658;2023-02-28T00:37:32;100717.19;;;15.57;29.96
8637;BME280;4356;49.068;8.658;2023-02-28T00:39:57;100719.50;;;15.60;30.21
8637;BME280;4356;49.068;8.658;2023-02-28T00:42:23;100728.50;;;15.61;30.21
8637;BME280;4356;49.068;8.658;2023-02-28T00:44:49;100731.00;;;15.62;29.77
8637;BME280;4356;49.068;8.658;2023-02-28T00:47:17;100732.72;;;15.63;29.88
8637;BME280;4356;49.068;8.658;2023-02-28T00:49:43;100725.97;;;15.59;29.82
8637;BME280;4356;49.068;8.658;2023-02-28T00:52:09;100720.94;;;15.56;30.28
8637;BME280;4356;49.068;8.658;2023-02-28T00:54:34;100723.78;;;15.55;29.90
8637;BME280;4356;49.068;8.658;2023-02-28T00:57:00;100722.31;;;15.52;30.09
8637;BME280;4356;49.068;8.658;2023-02-28T00:59:25;100707.34;;;15.41;30.05
8637;BME280;4356;49.068;8.658;2023-02-28T01:01:51;100711.53;;;15.44;30.31
8637;BME280;4356;49.068;8.658;2023-02-28T01:04:17;100723.31;;;15.51;29.89
8637;BME280;4356;49.068;8.658;2023-02-28T01:06:42;100725.03;;;15.52;30.29
8637;BME280;4356;49.068;8.658;2023-02-28T01:09:11;100728.59;;;15.53;30.35
8637;BME280;4356;49.068;8.658;2023-02-28T01:11:36;100710.06;;;15.41;29.95
8637;BME280;4356;49.068;8.658;2023-02-28T01:14:03;100726.59;;;15.47;30.00
8637;BME280;4356;49.068;8.658;2023-02-28T01:16:29;100727.91;;;15.51;30.37
8637;BME280;4356;49.068;8.658;2023-02-28T01:18:55;100725.56;;;15.48;29.97
8637;BME280;4356;49.068;8.658;2023-02-28T01:21:21;100724.53;;;15.49;30.07
8637;BME280;4356;49.068;8.658;2023-02-28T01:23:47;100727.78;;;15.44;30.40
8637;BME280;4356;49.068;8.658;2023-02-28T01:26:21;100703.63;;;15.34;30.47
8637;BME280;4356;49.068;8.658;2023-02-28T01:28:48;100712.75;;;15.41;30.32
8637;BME280;4356;49.068;8.658;2023-02-28T01:31:14;100717.13;;;15.42;30.60
8637;BME280;4356;49.068;8.658;2023-02-28T01:33:39;100714.78;;;15.39;30.50
8637;BME280;4356;49.068;8.658;2023-02-28T01:36:09;100726.13;;;15.43;30.43
8637;BME280;4356;49.068;8.658;2023-02-28T01:38:35;100722.75;;;15.41;30.35
8637;BME280;4356;49.068;8.658;2023-02-28T01:41:01;100711.75;;;15.34;30.57
8637;BME280;4356;49.068;8.658;2023-02-28T01:43:32;100710.56;;;15.37;30.25
8637;BME280;4356;49.068;8.658;2023-02-28T01:45:59;100706.41;;;15.26;30.53
8637;BME280;4356;49.068;8.658;2023-02-28T01:48:27;100708.56;;;15.31;30.45
8637;BME280;4356;49.068;8.658;2023-02-28T01:50:55;100718.00;;;15.35;30.45
8637;BME280;4356;49.068;8.658;2023-02-28T01:53:34;100719.06;;;15.34;30.29
8637;BME280;4356;49.068;8.658;2023-02-28T01:56:00;100701.38;;;15.23;30.65
8637;BME280;4356;49.068;8.658;2023-02-28T01:58:29;100703.50;;;15.28;30.82
8637;BME280;4356;49.068;8.658;2023-02-28T02:00:54;100704.84;;;15.32;30.71
8637;BME280;4356;49.068;8.658;2023-02-28T02:03:20;100698.28;;;15.26;30.74
8637;BME280;4356;49.068;8.658;2023-02-28T02:05:46;100704.56;;;15.27;30.58
8637;BME280;4356;49.068;8.658;2023-02-28T02:08:22;100692.22;;;15.24;30.58
8637;BME280;4356;49.068;8.658;2023-02-28T02:10:51;100693.41;;;15.22;30.36
8637;BME280;4356;49.068;8.658;2023-02-28T02:18:47;100702.00;;;15.25;30.44
8637;BME280;4356;49.068;8.658;2023-02-28T02:27:48;100696.09;;;15.22;30.58
8637;BME280;4356;49.068;8.658;2023-02-28T02:33:34;100687.34;;;15.20;30.57
8637;BME280;4356;49.068;8.658;2023-02-28T02:36:32;100691.25;;;15.17;30.26
8637;BME280;4356;49.068;8.658;2023-02-28T02:41:42;100691.78;;;15.13;30.80
8637;BME280;4356;49.068;8.658;2023-02-28T02:47:01;100697.03;;;15.14;30.87
8637;BME280;4356;49.068;8.658;2023-02-28T02:49:32;100688.06;;;15.14;31.03
8637;BME280;4356;49.068;8.658;2023-02-28T02:52:03;100695.53;;;15.12;30.95
8637;BME280;4356;49.068;8.658;2023-02-28T02:54:34;100693.47;;;15.14;30.85
8637;BME280;4356;49.068;8.658;2023-02-28T02:57:04;100693.47;;;15.14;31.00
8637;BME280;4356;49.068;8.658;2023-02-28T02:59:31;100690.13;;;15.12;30.55
8637;BME280;4356;49.068;8.658;2023-02-28T03:02:04;100697.19;;;15.13;31.17
8637;BME280;4356;49.068;8.658;2023-02-28T03:04:35;100693.19;;;15.09;31.12
8637;BME280;4356;49.068;8.658;2023-02-28T03:07:05;100677.00;;;15.01;30.75
8637;BME280;4356;49.068;8.658;2023-02-28T03:09:33;100684.59;;;15.05;30.78
8637;BME280;4356;49.068;8.658;2023-02-28T03:11:59;100687.28;;;15.05;30.73
8637;BME280;4356;49.068;8.658;2023-02-28T03:28:19;100687.94;;;15.07;30.74
8637;BME280;4356;49.068;8.658;2023-02-28T03:30:52;100685.59;;;15.04;31.22
8637;BME280;4356;49.068;8.658;2023-02-28T03:33:23;100688.50;;;15.03;31.28
8637;BME280;4356;49.068;8.658;2023-02-28T03:35:56;100687.63;;;15.02;31.29
8637;BME280;4356;49.068;8.658;2023-02-28T03:41:19;100688.50;;;15.03;30.86
8637;BME280;4356;49.068;8.658;2023-02-28T03:43:50;100661.16;;;14.90;31.09
8637;BME280;4356;49.068;8.658;2023-02-28T03:46:22;100678.03;;;15.00;31.08
8637;BME280;4356;49.068;8.658;2023-02-28T03:48:56;100670.44;;;14.95;31.21
8637;BME280;4356;49.068;8.658;2023-02-28T03:51:27;100685.31;;;14.99;31.05
8637;BME280;4356;49.068;8.658;2023-02-28T03:53:58;100688.19;;;14.98;30.94
8637;BME280;4356;49.068;8.658;2023-02-28T03:56:34;100688.84;;;15.00;31.44
8637;BME280;4356;49.068;8.658;2023-02-28T04:01:42;100668.16;;;14.84;31.30
8637;BME280;4356;49.068;8.658;2023-02-28T04:04:09;100672.66;;;14.92;31.68
8637;BME280;4356;49.068;8.658;2023-02-28T04:06:35;100691.72;;;14.98;31.42
8637;BME280;4356;49.068;8.658;2023-02-28T04:09:02;100690.72;;;14.99;31.15
8637;BME280;4356;49.068;8.658;2023-02-28T04:11:40;100674.19;;;14.94;31.25
8637;BME280;4356;49.068;8.658;2023-02-28T04:14:08;100666.78;;;14.88;31.25
8637;BME280;4356;49.068;8.658;2023-02-28T04:16:35;100686.31;;;14.98;31.28
8637;BME280;4356;49.068;8.658;2023-02-28T04:19:02;100689.00;;;14.98;31.62
8637;BME280;4356;49.068;8.658;2023-02-28T04:21:35;100683.66;;;14.90;31.33
8637;BME280;4356;49.068;8.658;2023-02-28T04:24:02;100689.88;;;14.99;31.25
8637;BME280;4356;49.068;8.658;2023-02-28T04:26:36;100687.16;;;14.99;31.08
8637;BME280;4356;49.068;8.658;2023-02-28T04:29:03;100692.38;;;15.00;31.12
8637;BME280;4356;49.068;8.658;2023-02-28T04:31:29;100689.88;;;14.99;31.01
8637;BME280;4356;49.068;8.658;2023-02-28T04:33:55;100666.09;;;14.86;31.50
8637;BME280;4356;49.068;8.658;2023-02-28T04:36:21;100689.88;;;14.99;31.48
8637;BME280;4356;49.068;8.658;2023-02-28T04:38:48;100689.88;;;14.99;31.57
8637;BME280;4356;49.068;8.658;2023-02-28T04:41:14;100687.16;;;14.99;30.99
8637;BME280;4356;49.068;8.658;2023-02-28T04:43:43;100689.00;;;14.98;31.21
8637;BME280;4356;49.068;8.658;2023-02-28T04:46:09;100688.00;;;14.99;30.93
8637;BME280;4356;49.068;8.658;2023-02-28T04:48:36;100682.28;;;14.94;31.21
8637;BME280;4356;49.068;8.658;2023-02-28T04:51:04;100690.72;;;14.99;31.23
8637;BME280;4356;49.068;8.658;2023-02-28T04:53:30;100683.78;;;14.97;31.38
8637;BME280;4356;49.068;8.658;2023-02-28T04:55:57;100689.00;;;14.98;30.80
8637;BME280;4356;49.068;8.658;2023-02-28T04:58:22;100695.28;;;14.99;30.97
8637;BME280;4356;49.068;8.658;2023-02-28T05:00:52;100694.59;;;14.97;31.17
8637;BME280;4356;49.068;8.658;2023-02-28T05:03:18;100671.69;;;14.85;31.40
8637;BME280;4356;49.068;8.658;2023-02-28T05:05:46;100689.75;;;14.92;31.03
8637;BME280;4356;49.068;8.658;2023-02-28T05:08:11;100680.66;;;14.85;30.86
8637;BME280;4356;49.068;8.658;2023-02-28T05:10:37;100699.34;;;14.95;30.98
8637;BME280;4356;49.068;8.658;2023-02-28T05:13:02;100707.31;;;14.96;30.96
8637;BME280;4356;49.068;8.658;2023-02-28T05:15:28;100691.59;;;14.92;30.89
8637;BME280;4356;49.068;8.658;2023-02-28T05:17:53;100695.16;;;14.92;30.85
8637;BME280;4356;49.068;8.658;2023-02-28T05:20:22;100698.72;;;14.93;30.80
8637;BME280;4356;49.068;8.658;2023-02-28T05:22:49;100697.22;;;14.90;31.14
8637;BME280;4356;49.068;8.658;2023-02-28T05:25:20;100701.25;;;14.94;31.25
8637;BME280;4356;49.068;8.658;2023-02-28T05:27:47;100707.47;;;14.95;31.09
8637;BME280;4356;49.068;8.658;2023-02-28T05:30:13;100704.47;;;14.90;31.24
8637;BME280;4356;49.068;8.658;2023-02-28T05:32:39;100711.22;;;14.94;31.19
8637;BME280;4356;49.068;8.658;2023-02-28T05:35:11;100715.78;;;14.93;31.02
8637;BME280;4356;49.068;8.658;2023-02-28T05:37:38;100708.88;;;14.91;31.19
8637;BME280;4356;49.068;8.658;2023-02-28T05:40:05;100711.41;;;14.92;30.96
8637;BME280;4356;49.068;8.658;2023-02-28T05:42:36;100696.44;;;14.82;30.91
8637;BME280;4356;49.068;8.658;2023-02-28T05:45:06;100706.00;;;14.92;30.81
8637;BME280;4356;49.068;8.658;2023-02-28T05:47:32;100700.97;;;14.81;31.01
8637;BME280;4356;49.068;8.658;2023-02-28T05:49:57;100715.97;;;14.92;31.04
8637;BME280;4356;49.068;8.658;2023-02-28T05:52:23;100688.66;;;14.79;30.78
8637;BME280;4356;49.068;8.658;2023-02-28T05:54:48;100715.31;;;14.90;31.03
8637;BME280;4356;49.068;8.658;2023-02-28T05:57:14;100697.78;;;14.78;31.09
8637;BME280;4356;49.068;8.658;2023-02-28T05:59:40;100715.31;;;14.90;30.90
8637;BME280;4356;49.068;8.658;2023-02-28T06:02:11;100718.84;;;14.90;30.95
8637;BME280;4356;49.068;8.658;2023-02-28T06:04:37;100714.28;;;14.91;31.18
8637;BME280;4356;49.068;8.658;2023-02-28T06:07:02;100682.56;;;14.77;31.24
8637;BME280;4356;49.068;8.658;2023-02-28T06:09:28;100710.19;;;14.95;30.75
8637;BME280;4356;49.068;8.658;2023-02-28T06:11:54;100709.56;;;14.93;30.81
8637;BME280;4356;49.068;8.658;2023-02-28T06:14:20;100713.56;;;14.97;31.26
8637;BME280;4356;49.068;8.658;2023-02-28T06:16:47;100714.53;;;15.04;30.88
8637;BME280;4356;49.068;8.658;2023-02-28T06:19:12;100707.91;;;15.06;31.12
8637;BME280;4356;49.068;8.658;2023-02-28T06:21:38;100673.03;;;14.89;30.77
8637;BME280;4356;49.068;8.658;2023-02-28T06:24:05;100704.53;;;15.04;31.13
8637;BME280;4356;49.068;8.658;2023-02-28T06:26:33;100692.88;;;15.04;30.64
8637;BME280;4356;49.068;8.658;2023-02-28T06:28:59;100702.78;;;15.11;30.50
8637;BME280;4356;49.068;8.658;2023-02-28T06:31:26;100721.50;;;15.21;30.58
8637;BME280;4356;49.068;8.658;2023-02-28T06:33:52;100717.97;;;15.20;30.82
8637;BME280;4356;49.068;8.658;2023-02-28T06:36:17;100731.56;;;15.35;30.71
8637;BME280;4356;49.068;8.658;2023-02-28T06:38:43;100716.28;;;15.42;30.47
8637;BME280;4356;49.068;8.658;2023-02-28T06:41:10;100725.31;;;15.57;30.15
8637;BME280;4356;49.068;8.658;2023-02-28T06:43:40;100721.31;;;15.68;30.09
8637;BME280;4356;49.068;8.658;2023-02-28T06:46:07;100721.06;;;15.77;29.83
8637;BME280;4356;49.068;8.658;2023-02-28T06:48:34;100743.97;;;16.04;29.69
8637;BME280;4356;49.068;8.658;2023-02-28T06:51:15;100738.28;;;16.13;29.32
8637;BME280;4356;49.068;8.658;2023-02-28T06:53:43;100729.88;;;16.23;29.15
8637;BME280;4356;49.068;8.658;2023-02-28T06:56:11;100752.81;;;16.50;29.04
8637;BME280;4356;49.068;8.658;2023-02-28T06:58:45;100751.94;;;16.64;28.89
8637;BME280;4356;49.068;8.658;2023-02-28T07:01:13;100738.03;;;16.67;28.94
8637;BME280;4356;49.068;8.658;2023-02-28T07:03:39;100745.34;;;16.87;28.70
8637;BME280;4356;49.068;8.658;2023-02-28T07:06:07;100751.78;;;17.01;28.58
8637;BME280;4356;49.068;8.658;2023-02-28T07:08:34;100740.09;;;17.00;28.57
8637;BME280;4356;49.068;8.658;2023-02-28T07:11:02;100753.88;;;17.20;28.49
8637;BME280;4356;49.068;8.658;2023-02-28T07:13:28;100762.94;;;17.27;28.23
8637;BME280;4356;49.068;8.658;2023-02-28T07:15:58;100755.03;;;17.32;27.84
8637;BME280;4356;49.068;8.658;2023-02-28T07:18:26;100743.53;;;17.30;27.84
8637;BME280;4356;49.068;8.658;2023-02-28T07:20:52;100762.78;;;17.50;27.78
8637;BME280;4356;49.068;8.658;2023-02-28T07:23:18;100759.25;;;17.56;27.65
8637;BME280;4356;49.068;8.658;2023-02-28T07:25:44;100764.09;;;17.54;27.69
8637;BME280;4356;49.068;8.658;2023-02-28T07:28:11;100791.81;;;17.70;27.76
8637;BME280;4356;49.068;8.658;2023-02-28T07:30:37;100777.66;;;17.75;27.51
8637;BME280;4356;49.068;8.658;2023-02-28T07:33:03;100784.63;;;17.84;27.35
8637;BME280;4356;49.068;8.658;2023-02-28T07:35:29;100784.88;;;17.89;27.42
8637;BME280;4356;49.068;8.658;2023-02-28T07:37:55;100752.56;;;17.79;27.74
8637;BME280;4356;49.068;8.658;2023-02-28T07:40:22;100757.22;;;17.85;27.17
8637;BME280;4356;49.068;8.658;2023-02-28T07:42:47;100762.97;;;17.97;27.40
8637;BME280;4356;49.068;8.658;2023-02-28T07:45:13;100777.06;;;18.07;27.35
8637;BME280;4356;49.068;8.658;2023-02-28T07:47:38;100772.91;;;18.11;27.13
8637;BME280;4356;49.068;8.658;2023-02-28T07:50:06;100762.63;;;18.06;27.21
8637;BME280;4356;49.068;8.658;2023-02-28T07:52:36;100771.94;;;18.18;27.02
8637;BME280;4356;49.068;8.658;2023-02-28T07:55:02;100778.66;;;18.22;27.16
8637;BME280;4356;49.068;8.658;2023-02-28T07:57:28;100783.06;;;18.30;26.85
8637;BME280;4356;49.068;8.658;2023-02-28T07:59:53;100763.16;;;18.23;26.87
8637;BME280;4356;49.068;8.658;2023-02-28T08:02:19;100785.44;;;18.39;26.97
8637;BME280;4356;49.068;8.658;2023-02-28T08:04:45;100764.03;;;18.30;26.78
8637;BME280;4356;49.068;8.658;2023-02-28T08:07:13;100781.56;;;18.48;26.92
8637;BME280;4356;49.068;8.658;2023-02-28T08:09:39;100785.78;;;18.51;26.79
8637;BME280;4356;49.068;8.658;2023-02-28T08:12:06;100775.47;;;18.46;26.41
8637;BME280;4356;49.068;8.658;2023-02-28T08:14:33;100785.78;;;18.58;26.63
8637;BME280;4356;49.068;8.658;2023-02-28T08:16:58;100782.88;;;18.59;26.36
8637;BME280;4356;49.068;8.658;2023-02-28T08:19:24;100789.19;;;18.66;26.66
8637;BME280;4356;49.068;8.658;2023-02-28T08:21:52;100791.31;;;18.71;26.29
8637;BME280;4356;49.068;8.658;2023-02-28T08:24:17;100765.53;;;18.67;26.45
8637;BME280;4356;49.068;8.658;2023-02-28T08:26:46;100780.84;;;18.74;26.57
8637;BME280;4356;49.068;8.658;2023-02-28T08:29:26;100794.53;;;18.87;26.47
8637;BME280;4356;49.068;8.658;2023-02-28T08:32:00;100771.69;;;18.82;26.11
8637;BME280;4356;49.068;8.658;2023-02-28T08:34:28;100784.50;;;18.94;26.24
8637;BME280;4356;49.068;8.658;2023-02-28T08:37:07;100783.06;;;18.98;25.92
8637;BME280;4356;49.068;8.658;2023-02-28T08:39:40;100777.84;;;19.03;26.06
8637;BME280;4356;49.068;8.658;2023-02-28T08:42:06;100775.97;;;19.04;26.11
8637;BME280;4356;49.068;8.658;2023-02-28T08:44:31;100793.19;;;19.17;26.09
8637;BME280;4356;49.068;8.658;2023-02-28T08:46:57;100793.81;;;19.19;26.05
8637;BME280;4356;49.068;8.658;2023-02-28T08:49:23;100791.94;;;19.20;26.04
8637;BME280;4356;49.068;8.658;2023-02-28T08:51:51;100789.00;;;19.21;25.93
8637;BME280;4356;49.068;8.658;2023-02-28T08:54:17;100789.44;;;19.25;25.64
8637;BME280;4356;49.068;8.658;2023-02-28T08:56:45;100790.31;;;19.32;25.72
8637;BME280;4356;49.068;8.658;2023-02-28T08:59:16;100775.22;;;19.29;25.59
8637;BME280;4356;49.068;8.658;2023-02-28T09:01:45;100776.91;;;19.37;25.67
8637;BME280;4356;49.068;8.658;2023-02-28T09:04:10;100773.78;;;19.46;25.85
8637;BME280;4356;49.068;8.658;2023-02-28T09:06:37;100794.38;;;19.75;25.63
8637;BME280;4356;49.068;8.658;2023-02-28T09:09:03;100773.81;;;19.79;25.46
8637;BME280;4356;49.068;8.658;2023-02-28T09:11:31;100790.19;;;20.05;25.25
8637;BME280;4356;49.068;8.658;2023-02-28T09:13:57;100797.13;;;20.21;25.26
8637;BME280;4356;49.068;8.658;2023-02-28T09:16:24;100780.53;;;20.35;25.03
8637;BME280;4356;49.068;8.658;2023-02-28T09:18:50;100790.97;;;20.52;24.16
8637;BME280;4356;49.068;8.658;2023-02-28T09:21:17;100784.03;;;20.69;20.59
8637;BME280;4356;49.068;8.658;2023-02-28T09:23:44;100784.34;;;20.92;22.51
8637;BME280;4356;49.068;8.658;2023-02-28T09:26:27;100786.44;;;21.03;23.11
8637;BME280;4356;49.068;8.658;2023-02-28T09:28:54;100789.34;;;21.08;23.37
8637;BME280;4356;49.068;8.658;2023-02-28T09:31:25;100784.91;;;21.13;23.19
8637;BME280;4356;49.068;8.658;2023-02-28T09:33:53;100792.66;;;21.16;23.57
8637;BME280;4356;49.068;8.658;2023-02-28T09:36:19;100790.78;;;21.17;23.43
8637;BME280;4356;49.068;8.658;2023-02-28T09:38:45;100773.13;;;21.13;23.48
8637;BME280;4356;49.068;8.658;2023-02-28T09:41:23;100782.13;;;21.20;22.72
8637;BME280;4356;49.068;8.658;2023-02-28T09:43:56;100790.53;;;21.25;23.05
8637;BME280;4356;49.068;8.658;2023-02-28T09:46:37;100792.19;;;21.26;22.81
8637;BME280;4356;49.068;8.658;2023-02-28T09:49:18;100793.03;;;21.26;22.89
8637;BME280;4356;49.068;8.658;2023-02-28T09:51:52;100796.41;;;21.22;23.11
8637;BME280;4356;49.068;8.658;2023-02-28T09:54:23;100783.66;;;21.16;23.42
8637;BME280;4356;49.068;8.658;2023-02-28T09:56:54;100788.50;;;21.14;23.50
8637;BME280;4356;49.068;8.658;2023-02-28T09:59:41;100778.81;;;21.11;23.44
8637;BME280;4356;49.068;8.658;2023-02-28T10:04:59;100788.09;;;21.04;23.97
8637;BME280;4356;49.068;8.658;2023-02-28T10:07:38;100796.69;;;21.07;23.81
8637;BME280;4356;49.068;8.658;2023-02-28T10:10:41;100790.19;;;21.08;23.82
8637;BME280;4356;49.068;8.658;2023-02-28T10:13:36;100789.13;;;21.09;23.70
8637;BME280;4356;49.068;8.658;2023-02-28T10:16:15;100796.47;;;21.09;23.76
8637;BME280;4356;49.068;8.658;2023-02-28T10:19:49;100797.53;;;21.08;23.57
8637;BME280;4356;49.068;8.658;2023-02-28T10:24:54;100791.69;;;21.04;23.94
8637;BME280;4356;49.068;8.658;2023-02-28T10:27:28;100790.44;;;21.00;24.25
8637;BME280;4356;49.068;8.658;2023-02-28T10:29:59;100790.81;;;21.04;23.76
8637;BME280;4356;49.068;8.658;2023-02-28T10:32:33;100790.44;;;21.00;23.44
8637;BME280;4356;49.068;8.658;2023-02-28T10:35:17;100792.75;;;21.03;21.99
8637;BME280;4356;49.068;8.658;2023-02-28T10:37:46;100799.88;;;21.04;23.58
8637;BME280;4356;49.068;8.658;2023-02-28T10:43:03;100804.31;;;20.92;23.41
8637;BME280;4356;49.068;8.658;2023-02-28T10:45:32;100790.88;;;20.84;23.20
8637;BME280;4356;49.068;8.658;2023-02-28T10:48:22;100789.22;;;20.77;23.15
8637;BME280;4356;49.068;8.658;2023-02-28T10:50:51;100804.53;;;20.84;23.40
8637;BME280;4356;49.068;8.658;2023-02-28T10:56:14;100797.81;;;20.87;23.05
8637;BME280;4356;49.068;8.658;2023-02-28T11:01:41;100792.97;;;20.89;23.74
8637;BME280;4356;49.068;8.658;2023-02-28T11:04:42;100778.28;;;20.83;23.99
8637;BME280;4356;49.068;8.658;2023-02-28T11:07:19;100778.25;;;20.90;23.41
8637;BME280;4356;49.068;8.658;2023-02-28T11:09:50;100780.75;;;20.91;23.82
8637;BME280;4356;49.068;8.658;2023-02-28T11:12:28;100788.94;;;20.98;23.49
8637;BME280;4356;49.068;8.658;2023-02-28T11:15:01;100771.53;;;20.92;23.64
8637;BME280;4356;49.068;8.658;2023-02-28T11:17:30;100748.88;;;20.79;23.83
8637;BME280;4356;49.068;8.658;2023-02-28T11:20:00;100779.28;;;21.02;23.60
8637;BME280;4356;49.068;8.658;2023-02-28T11:22:33;100780.97;;;21.03;23.43
8637;BME280;4356;49.068;8.658;2023-02-28T11:25:07;100745.91;;;20.87;23.57
8637;BME280;4356;49.068;8.658;2023-02-28T11:27:41;100766.41;;;21.09;23.46
8637;BME280;4356;49.068;8.658;2023-02-28T11:32:51;100757.81;;;21.05;23.57
8637;BME280;4356;49.068;8.658;2023-02-28T11:35:23;100741.66;;;20.97;23.34
8637;BME280;4356;49.068;8.658;2023-02-28T11:37:50;100764.69;;;21.14;23.61
8637;BME280;4356;49.068;8.658;2023-02-28T11:40:18;100755.06;;;21.12;23.27
8637;BME280;4356;49.068;8.658;2023-02-28T11:42:54;100761.94;;;21.21;23.10
8637;BME280;4356;49.068;8.658;2023-02-28T11:48:23;100762.78;;;21.21;23.25
8637;BME280;4356;49.068;8.658;2023-02-28T11:57:28;100769.22;;;21.33;23.52
8637;BME280;4356;49.068;8.658;2023-02-28T12:13:29;100771.66;;;21.48;23.54
8637;BME280;4356;49.068;8.658;2023-02-28T12:16:17;100756.91;;;21.49;22.81
8637;BME280;4356;49.068;8.658;2023-02-28T12:18:57;100769.09;;;21.53;22.85
8637;BME280;4356;49.068;8.658;2023-02-28T12:24:22;100760.00;;;21.59;23.41
8637;BME280;4356;49.068;8.658;2023-02-28T12:26:51;100741.75;;;21.53;23.02
8637;BME280;4356;49.068;8.658;2023-02-28T12:32:27;100746.28;;;21.66;22.51
8637;BME280;4356;49.068;8.658;2023-02-28T12:37:32;100740.56;;;21.67;22.90
8637;BME280;4356;49.068;8.658;2023-02-28T12:40:21;100748.97;;;21.72;22.79
8637;BME280;4356;49.068;8.658;2023-02-28T12:42:59;100746.81;;;21.74;23.05
8637;BME280;4356;49.068;8.658;2023-02-28T12:45:38;100740.78;;;21.72;22.65
8637;BME280;4356;49.068;8.658;2023-02-28T12:48:11;100733.22;;;21.68;22.90
8637;BME280;4356;49.068;8.658;2023-02-28T12:50:40;100731.75;;;21.65;22.64
8637;BME280;4356;49.068;8.658;2023-02-28T12:53:31;100734.50;;;21.65;22.31
8637;BME280;4356;49.068;8.658;2023-02-28T12:56:19;100726.47;;;21.70;22.13
8637;BME280;4356;49.068;8.658;2023-02-28T12:59:16;100731.72;;;21.72;21.79
8637;BME280;4356;49.068;8.658;2023-02-28T13:02:21;100730.41;;;21.74;22.37
8637;BME280;4356;49.068;8.658;2023-02-28T13:07:41;100726.88;;;21.74;22.08
8637;BME280;4356;49.068;8.658;2023-02-28T13:10:12;100718.25;;;21.70;22.18
8637;BME280;4356;49.068;8.658;2023-02-28T13:12:52;100709.06;;;21.65;22.08
8637;BME280;4356;49.068;8.658;2023-02-28T13:15:25;100727.06;;;21.79;22.46
8637;BME280;4356;49.068;8.658;2023-02-28T13:17:56;100731.03;;;21.83;22.06
8637;BME280;4356;49.068;8.658;2023-02-28T13:20:33;100727.44;;;21.82;22.08
8637;BME280;4356;49.068;8.658;2023-02-28T13:23:03;100695.94;;;21.73;22.16
8637;BME280;4356;49.068;8.658;2023-02-28T13:28:08;100686.44;;;21.76;22.22
8637;BME280;4356;49.068;8.658;2023-02-28T13:36:10;100718.63;;;22.05;22.06
8637;BME280;4356;49.068;8.658;2023-02-28T13:38:57;100721.13;;;22.06;21.92
8637;BME280;4356;49.068;8.658;2023-02-28T13:44:06;100719.19;;;22.07;22.36
8637;BME280;4356;49.068;8.658;2023-02-28T14:03:29;100729.19;;;22.19;22.06
8637;BME280;4356;49.068;8.658;2023-02-28T14:06:23;100719.16;;;22.13;22.15
8637;BME280;4356;49.068;8.658;2023-02-28T14:09:02;100721.75;;;22.08;22.63
8637;BME280;4356;49.068;8.658;2023-02-28T14:11:35;100717.81;;;21.98;22.43
8637;BME280;4356;49.068;8.658;2023-02-28T14:14:02;100721.41;;;21.98;22.63
8637;BME280;4356;49.068;8.658;2023-02-28T14:16:44;100705.94;;;21.86;22.36
8637;BME280;4356;49.068;8.658;2023-02-28T14:19:14;100722.50;;;21.91;22.75
8637;BME280;4356;49.068;8.658;2023-02-28T14:28:11;100720.53;;;21.73;22.62
8637;BME280;4356;49.068;8.658;2023-02-28T14:30:59;100716.81;;;21.68;23.24
8637;BME280;4356;49.068;8.658;2023-02-28T14:36:11;100717.91;;;21.60;22.76
8637;BME280;4356;49.068;8.658;2023-02-28T14:38:52;100722.16;;;21.56;23.10
8637;BME280;4356;49.068;8.658;2023-02-28T14:41:40;100717.97;;;21.54;23.22
8637;BME280;4356;49.068;8.658;2023-02-28T14:44:21;100696.41;;;21.39;23.08
8637;BME280;4356;49.068;8.658;2023-02-28T14:46:57;100715.28;;;21.47;23.12
8637;BME280;4356;49.068;8.658;2023-02-28T14:54:31;100700.03;;;21.33;23.29
8637;BME280;4356;49.068;8.658;2023-02-28T14:56:56;100710.31;;;21.37;23.23
8637;BME280;4356;49.068;8.658;2023-02-28T14:59:31;100718.53;;;21.37;23.01
8637;BME280;4356;49.068;8.658;2023-02-28T15:02:36;100716.81;;;21.36;23.03
8637;BME280;4356;49.068;8.658;2023-02-28T15:07:47;100719.16;;;21.33;23.23
8637;BME280;4356;49.068;8.658;2023-02-28T15:10:20;100716.66;;;21.31;23.45
8637;BME280;4356;49.068;8.658;2023-02-28T15:12:56;100714.38;;;21.28;23.35
8637;BME280;4356;49.068;8.658;2023-02-28T15:17:56;100718.38;;;21.26;23.90
8637;BME280;4356;49.068;8.658;2023-02-28T15:20:24;100718.59;;;21.24;23.84
8637;BME280;4356;49.068;8.658;2023-02-28T15:22:52;100719.44;;;21.25;23.75
8637;BME280;4356;49.068;8.658;2023-02-28T15:25:22;100709.63;;;21.17;23.57
8637;BME280;4356;49.068;8.658;2023-02-28T15:27:50;100705.41;;;21.15;23.96
8637;BME280;4356;49.068;8.658;2023-02-28T15:30:32;100722.59;;;21.22;23.92
8637;BME280;4356;49.068;8.658;2023-02-28T15:33:15;100719.06;;;21.21;23.92
8637;BME280;4356;49.068;8.658;2023-02-28T15:35:44;100710.25;;;21.13;24.64
8637;BME280;4356;49.068;8.658;2023-02-28T15:40:42;100715.91;;;21.18;24.26
8637;BME280;4356;49.068;8.658;2023-02-28T15:43:22;100715.31;;;21.16;24.00
8637;BME280;4356;49.068;8.658;2023-02-28T15:45:52;100724.94;;;21.18;24.16
8637;BME280;4356;49.068;8.658;2023-02-28T15:48:23;100721.38;;;21.18;24.14